createdAt,value
2022-08-05T00:00:33.354Z,3.90
2022-08-05T00:03:48.956Z,3.60
2022-08-05T00:06:51.919Z,4.00
2022-08-05T00:09:53.565Z,3.70
2022-08-05T00:12:57.079Z,3.70
2022-08-05T00:16:00.257Z,3.47
2022-08-05T00:19:02.054Z,3.55
2022-08-05T00:22:04.528Z,3.60
2022-08-05T00:25:08.429Z,3.60
2022-08-05T00:28:15.550Z,3.65
2022-08-05T00:31:53.986Z,3.63
2022-08-05T00:35:04.654Z,3.28
2022-08-05T00:38:09.441Z,3.72
2022-08-05T00:41:11.762Z,3.45
2022-08-05T00:44:13.734Z,3.58
2022-08-05T00:47:16.421Z,3.50
2022-08-05T00:50:18.050Z,3.28
2022-08-05T00:54:00.133Z,3.50
2022-08-05T00:56:51.262Z,3.42
2022-08-05T00:59:53.783Z,3.45
2022-08-05T01:02:57.144Z,3.55
2022-08-05T01:05:58.766Z,3.70
2022-08-05T01:09:00.541Z,3.30
2022-08-05T01:12:18.855Z,3.22
2022-08-05T01:15:36.424Z,3.30
2022-08-05T01:18:42.580Z,3.08
2022-08-05T01:25:19.750Z,3.90
2022-08-05T01:28:46.426Z,3.70
2022-08-05T01:31:52.682Z,4.25
2022-08-05T01:35:00.662Z,3.60
2022-08-05T01:38:04.346Z,3.83
2022-08-05T01:41:07.777Z,4.00
2022-08-05T01:44:11.185Z,3.60
2022-08-05T01:47:19.717Z,3.60
2022-08-05T01:50:32.669Z,4.15
2022-08-05T01:53:57.643Z,3.97
2022-08-05T01:58:12.975Z,4.15
2022-08-05T02:00:21.003Z,3.97
2022-08-05T02:03:36.209Z,4.20
2022-08-05T02:06:39.477Z,4.20
2022-08-05T02:09:41.153Z,4.00
2022-08-05T02:12:56.394Z,3.97
2022-08-05T02:16:04.640Z,4.05
2022-08-05T02:19:16.027Z,4.47
2022-08-05T02:22:30.893Z,4.30
2022-08-05T02:25:49.246Z,4.38
2022-08-05T02:28:54.675Z,4.40
2022-08-05T02:32:00.688Z,3.70
2022-08-05T02:35:14.179Z,3.80
2022-08-05T02:38:19.272Z,4.22
2022-08-05T02:41:23.768Z,4.00
2022-08-05T02:44:34.155Z,4.03
2022-08-05T02:48:06.791Z,3.95
2022-08-05T02:51:02.972Z,3.70
2022-08-05T02:54:06.093Z,4.28
2022-08-05T02:58:20.175Z,4.10
2022-08-05T03:00:41.127Z,3.97
2022-08-05T03:04:08.897Z,4.25
2022-08-05T03:07:17.551Z,4.20
2022-08-05T03:10:36.339Z,4.15
2022-08-05T03:17:00.675Z,4.40
2022-08-05T03:20:02.435Z,4.13
2022-08-05T03:26:31.391Z,4.20
2022-08-05T03:29:44.813Z,4.32
2022-08-05T03:32:55.327Z,4.60
2022-08-05T03:35:58.162Z,4.80
2022-08-05T03:39:07.478Z,4.53
2022-08-05T03:42:09.506Z,4.38
2022-08-05T03:48:29.241Z,4.00
2022-08-05T03:52:39.424Z,4.70
2022-08-05T03:56:05.845Z,4.40
2022-08-05T03:58:31.395Z,4.38
2022-08-05T04:01:37.600Z,4.35
2022-08-05T04:04:40.931Z,4.50
2022-08-05T04:07:57.563Z,4.60
2022-08-05T04:11:02.375Z,4.40
2022-08-05T04:14:04.854Z,4.45
2022-08-05T04:17:09.039Z,4.50
2022-08-05T04:20:21.636Z,4.05
2022-08-05T04:24:00.266Z,4.50
2022-08-05T04:26:47.867Z,4.95
2022-08-05T04:29:49.352Z,4.53
2022-08-05T04:36:11.161Z,4.43
2022-08-05T04:39:14.045Z,3.75
2022-08-05T04:45:31.135Z,4.03
2022-08-05T04:48:38.769Z,4.60
2022-08-05T04:51:44.284Z,4.18
2022-08-05T04:54:45.844Z,3.90
2022-08-05T04:57:53.772Z,3.90
2022-08-05T05:00:55.958Z,3.55
2022-08-05T05:06:58.948Z,3.58
2022-08-05T05:10:04.468Z,3.50
2022-08-05T05:13:06.079Z,3.58
2022-08-05T05:19:19.355Z,3.17
2022-08-05T05:22:26.441Z,3.28
2022-08-05T05:25:32.704Z,3.08
2022-08-05T05:28:42.789Z,3.00
2022-08-05T05:31:46.689Z,3.05
2022-08-05T05:34:48.198Z,3.00
2022-08-05T05:38:02.145Z,3.35
2022-08-05T05:41:03.963Z,3.10
2022-08-05T05:44:27.008Z,3.03
2022-08-05T05:48:06.140Z,2.95
2022-08-05T05:50:52.977Z,3.33
2022-08-05T05:53:58.873Z,3.10
2022-08-05T05:57:01.204Z,3.28
2022-08-05T06:00:10.221Z,3.03
2022-08-05T06:03:39.803Z,3.20
2022-08-05T06:06:36.861Z,3.00
2022-08-05T06:10:01.440Z,3.70
2022-08-05T06:13:05.244Z,3.00
2022-08-05T06:16:29.706Z,3.10
2022-08-05T06:19:34.487Z,3.60
2022-08-05T06:22:37.487Z,3.80
2022-08-05T06:26:12.789Z,3.33
2022-08-05T06:29:06.455Z,3.45
2022-08-05T06:32:28.900Z,3.50
2022-08-05T06:36:07.252Z,3.00
2022-08-05T06:38:54.666Z,3.45
2022-08-05T06:41:58.899Z,3.20
2022-08-05T06:45:05.472Z,3.15
2022-08-05T06:48:36.208Z,3.60
2022-08-05T06:51:31.808Z,3.38
2022-08-05T06:58:02.677Z,3.88
2022-08-05T07:01:03.278Z,3.60
2022-08-05T07:04:04.779Z,3.60
2022-08-05T07:07:07.917Z,3.40
2022-08-05T07:10:10.436Z,3.50
2022-08-05T07:13:57.201Z,3.50
2022-08-05T07:18:08.487Z,3.60
2022-08-05T07:20:33.510Z,3.80
2022-08-05T07:23:37.377Z,3.45
2022-08-05T07:26:52.078Z,3.40
2022-08-05T07:30:25.574Z,3.22
2022-08-05T07:33:16.850Z,3.95
2022-08-05T07:36:20.595Z,3.38
2022-08-05T07:39:24.873Z,2.85
2022-08-05T07:42:44.748Z,3.00
2022-08-05T07:45:57.014Z,3.50
2022-08-05T07:49:05.430Z,3.35
2022-08-05T07:52:07.824Z,3.13
2022-08-05T07:55:44.633Z,2.90
2022-08-05T07:58:57.179Z,3.00
2022-08-05T08:01:57.656Z,3.00
2022-08-05T08:05:00.429Z,3.30
2022-08-05T08:08:02.053Z,3.22
2022-08-05T08:14:10.296Z,3.13
2022-08-05T08:17:19.668Z,2.88
2022-08-05T08:20:43.944Z,2.80
2022-08-05T08:24:01.409Z,2.63
2022-08-05T08:27:07.585Z,3.00
2022-08-05T08:30:30.111Z,3.10
2022-08-05T08:33:35.950Z,2.83
2022-08-05T08:36:47.703Z,2.85
2022-08-05T08:39:54.150Z,2.63
2022-08-05T08:42:56.821Z,2.50
2022-08-05T08:45:59.899Z,2.85
2022-08-05T08:50:12.881Z,2.70
2022-08-05T08:52:32.058Z,2.67
2022-08-05T08:56:04.643Z,2.80
2022-08-05T08:58:59.308Z,2.78
2022-08-05T09:02:08.598Z,2.50
2022-08-05T09:05:17.493Z,2.80
2022-08-05T09:08:20.111Z,2.40
2022-08-05T09:11:52.170Z,2.40
2022-08-05T09:14:57.859Z,2.63
2022-08-05T09:18:01.433Z,2.53
2022-08-05T09:21:05.615Z,2.88
2022-08-05T09:24:13.558Z,2.65
2022-08-05T09:28:03.799Z,2.80
2022-08-05T09:31:00.919Z,2.47
2022-08-05T09:34:19.649Z,2.60
2022-08-05T09:38:17.302Z,2.70
2022-08-05T09:40:53.564Z,2.53
2022-08-05T09:43:55.588Z,2.50
2022-08-05T09:47:12.715Z,2.50
2022-08-05T09:50:38.089Z,2.72
2022-08-05T09:53:53.633Z,2.83
2022-08-05T09:56:57.818Z,3.10
2022-08-05T10:00:13.205Z,2.97
2022-08-05T10:03:15.602Z,2.88
2022-08-05T10:06:20.746Z,2.65
2022-08-05T10:09:27.523Z,2.90
2022-08-05T10:12:33.785Z,2.83
2022-08-05T10:15:41.429Z,2.90
2022-08-05T10:18:43.560Z,2.80
2022-08-05T10:21:50.651Z,2.80
2022-08-05T10:24:52.576Z,2.60
2022-08-05T10:28:13.080Z,2.65
2022-08-05T10:32:53.046Z,2.80
2022-08-05T10:34:40.874Z,2.80
2022-08-05T10:37:45.029Z,2.70
2022-08-05T10:40:49.857Z,2.78
2022-08-05T10:43:59.528Z,2.83
2022-08-05T10:47:26.506Z,2.55
2022-08-05T10:50:37.037Z,2.60
2022-08-05T10:53:45.377Z,2.58
2022-08-05T10:56:52.810Z,2.80
2022-08-05T11:00:13.376Z,2.67
2022-08-05T11:03:23.162Z,2.50
2022-08-05T11:06:31.166Z,2.88
2022-08-05T11:09:51.583Z,2.65
2022-08-05T11:13:06.831Z,2.60
2022-08-05T11:16:33.786Z,2.53
2022-08-05T11:20:17.309Z,2.67
2022-08-05T11:24:04.679Z,2.38
2022-08-05T11:27:29.240Z,2.75
2022-08-05T11:30:58.324Z,2.50
2022-08-05T11:34:02.476Z,2.50
2022-08-05T11:37:55.156Z,2.72
2022-08-05T11:41:00.791Z,2.40
2022-08-05T11:44:12.774Z,2.70
2022-08-05T11:47:48.611Z,2.63
2022-08-05T11:50:59.984Z,2.70
2022-08-05T11:54:01.868Z,2.88
2022-08-05T11:57:07.557Z,2.80
2022-08-05T12:00:27.650Z,2.63
2022-08-05T12:03:31.931Z,2.55
2022-08-05T12:06:35.654Z,2.70
2022-08-05T12:09:53.138Z,2.63
2022-08-05T12:13:03.034Z,2.97
2022-08-05T12:16:15.518Z,3.40
2022-08-05T12:20:17.189Z,2.92
2022-08-05T12:22:39.838Z,2.47
2022-08-05T12:25:50.601Z,2.60
2022-08-05T12:28:52.587Z,2.90
2022-08-05T12:31:57.065Z,2.80
2022-08-05T12:34:58.767Z,2.80
2022-08-05T12:38:07.168Z,3.00
2022-08-05T12:41:14.176Z,2.88
2022-08-05T12:44:28.432Z,2.80
2022-08-05T12:47:35.580Z,2.92
2022-08-05T12:50:37.078Z,2.70
2022-08-05T12:53:47.442Z,2.80
2022-08-05T12:56:59.719Z,3.10
2022-08-05T13:01:58.424Z,2.80
2022-08-05T13:03:24.327Z,2.58
2022-08-05T13:06:33.890Z,2.80
2022-08-05T13:09:35.374Z,2.75
2022-08-05T13:12:42.505Z,2.60
2022-08-05T13:15:54.434Z,2.58
2022-08-05T13:18:58.475Z,2.72
2022-08-05T13:22:00.524Z,2.80
2022-08-05T13:25:19.456Z,2.83
2022-08-05T13:28:23.428Z,2.77
2022-08-05T13:32:02.786Z,2.88
2022-08-05T13:34:47.844Z,2.70
2022-08-05T13:37:55.493Z,3.30
2022-08-05T13:40:57.506Z,2.97
2022-08-05T13:43:59.251Z,3.17
2022-08-05T13:47:05.186Z,3.15
2022-08-05T13:50:16.237Z,3.10
2022-08-05T13:53:18.372Z,3.10
2022-08-05T13:56:20.269Z,3.17
2022-08-05T13:59:27.345Z,3.20
2022-08-05T14:02:32.067Z,3.80
2022-08-05T14:06:04.635Z,3.80
2022-08-05T14:08:56.135Z,3.65
2022-08-05T14:12:17.215Z,3.53
2022-08-05T14:16:08.520Z,3.90
2022-08-05T14:18:41.529Z,3.70
2022-08-05T14:22:09.278Z,3.75
2022-08-05T14:28:26.175Z,3.97
2022-08-05T14:31:54.584Z,3.72
2022-08-05T14:34:50.101Z,4.13
2022-08-05T14:37:55.414Z,3.75
2022-08-05T14:40:57.251Z,4.20
2022-08-05T14:44:09.443Z,4.40
2022-08-05T14:47:11.654Z,4.10
2022-08-05T14:50:18.224Z,3.92
2022-08-05T14:53:20.719Z,4.10
2022-08-05T14:56:23.399Z,4.35
2022-08-05T14:59:29.497Z,3.92
2022-08-05T15:02:36.811Z,4.10
2022-08-05T15:06:07.341Z,3.45
2022-08-05T15:09:03.825Z,3.72
2022-08-05T15:12:06.078Z,3.60
2022-08-05T15:15:15.399Z,3.42
2022-08-05T15:18:17.447Z,3.60
2022-08-05T15:21:21.163Z,3.70
2022-08-05T15:24:22.725Z,3.78
2022-08-05T15:30:28.622Z,3.78
2022-08-05T15:34:18.892Z,3.38
2022-08-05T15:36:51.685Z,3.78
2022-08-05T15:41:03.538Z,3.45
2022-08-05T15:43:20.081Z,3.50
2022-08-05T15:46:24.388Z,4.00
2022-08-05T15:49:48.048Z,3.97
2022-08-05T15:52:53.912Z,3.95
2022-08-05T15:56:03.377Z,3.60
2022-08-05T15:59:05.907Z,3.28
2022-08-05T16:05:16.041Z,3.25
2022-08-05T16:11:39.904Z,3.72
2022-08-05T16:14:43.636Z,3.75
2022-08-05T16:17:46.767Z,3.70
2022-08-05T16:21:01.209Z,3.75
2022-08-05T16:24:06.341Z,3.60
2022-08-05T16:27:15.884Z,3.50
2022-08-05T16:30:25.468Z,3.90
2022-08-05T16:33:32.016Z,3.70
2022-08-05T16:36:43.689Z,3.70
2022-08-05T16:40:06.476Z,3.22
2022-08-05T16:43:07.055Z,4.18
2022-08-05T16:46:23.407Z,3.97
2022-08-05T16:49:26.497Z,4.22
2022-08-05T16:52:33.661Z,3.50
2022-08-05T16:55:46.874Z,3.58
2022-08-05T16:58:48.899Z,3.47
2022-08-05T17:01:56.171Z,3.17
2022-08-05T17:04:58.035Z,4.15
2022-08-05T17:07:59.906Z,3.33
2022-08-05T17:14:06.335Z,3.72
2022-08-05T17:17:14.472Z,3.10
2022-08-05T17:20:17.005Z,3.40
2022-08-05T17:24:03.581Z,3.60
2022-08-05T17:26:40.959Z,3.22
2022-08-05T17:29:42.728Z,3.00
2022-08-05T17:32:44.616Z,3.65
2022-08-05T17:36:07.769Z,3.30
2022-08-05T17:39:24.176Z,3.10
2022-08-05T17:45:38.781Z,3.35
2022-08-05T17:48:40.409Z,3.35
2022-08-05T17:51:46.570Z,3.40
2022-08-05T17:54:52.005Z,3.33
2022-08-05T17:57:54.264Z,3.50
2022-08-05T18:00:55.789Z,3.60
2022-08-05T18:04:04.038Z,3.47
2022-08-05T18:07:07.120Z,3.13
2022-08-05T18:10:21.010Z,3.40
2022-08-05T18:13:23.134Z,3.45
2022-08-05T18:16:27.371Z,3.40
2022-08-05T18:19:28.948Z,3.30
2022-08-05T18:22:46.154Z,3.45
2022-08-05T18:29:01.046Z,3.63
2022-08-05T18:32:03.023Z,3.53
2022-08-05T18:35:05.103Z,3.58
2022-08-05T18:38:07.675Z,3.80
2022-08-05T18:41:57.397Z,3.90
2022-08-05T18:44:35.151Z,5.05
2022-08-05T18:47:38.023Z,5.18
2022-08-05T18:52:02.906Z,4.80
2022-08-05T18:54:20.042Z,5.00
2022-08-05T18:57:23.891Z,5.00
2022-08-05T19:00:28.884Z,5.00
2022-08-05T19:03:53.453Z,4.47
2022-08-05T19:06:53.657Z,5.18
2022-08-05T19:09:55.965Z,4.95
2022-08-05T19:12:57.745Z,4.93
2022-08-05T19:16:03.588Z,5.00
2022-08-05T19:19:06.822Z,5.03
2022-08-05T19:22:12.417Z,4.97
2022-08-05T19:25:21.587Z,5.22
2022-08-05T19:28:32.824Z,5.22
2022-08-05T19:31:34.579Z,5.18
2022-08-05T19:34:55.160Z,5.00
2022-08-05T19:38:05.902Z,5.03
2022-08-05T19:41:10.095Z,5.25
2022-08-05T19:44:13.163Z,4.80
2022-08-05T19:47:16.365Z,5.00
2022-08-05T19:50:19.930Z,5.28
2022-08-05T19:54:04.726Z,4.88
2022-08-05T19:56:43.158Z,4.50
2022-08-05T20:03:12.908Z,3.78
2022-08-05T20:06:15.980Z,3.80
2022-08-05T20:09:30.372Z,3.60
2022-08-05T20:12:51.823Z,3.20
2022-08-05T20:15:57.541Z,3.15
2022-08-05T20:18:59.312Z,3.58
2022-08-05T20:22:02.851Z,3.55
2022-08-05T20:25:04.569Z,3.13
2022-08-05T20:31:08.739Z,3.50
2022-08-05T20:34:11.552Z,3.28
2022-08-05T20:37:24.056Z,4.03
2022-08-05T20:40:35.806Z,3.42
2022-08-05T20:47:03.591Z,3.80
2022-08-05T20:50:07.516Z,3.88
2022-08-05T20:53:16.336Z,4.50
2022-08-05T20:56:35.434Z,3.90
2022-08-05T21:00:10.471Z,3.47
2022-08-05T21:03:08.017Z,4.05
2022-08-05T21:06:27.523Z,4.20
2022-08-05T21:09:30.709Z,3.95
2022-08-05T21:12:36.133Z,4.00
2022-08-05T21:15:37.644Z,3.60
2022-08-05T21:18:39.110Z,3.70
2022-08-05T21:21:51.046Z,3.45
2022-08-05T21:24:54.363Z,3.65
2022-08-05T21:27:56.439Z,3.38
2022-08-05T21:30:58.803Z,3.70
2022-08-05T21:34:00.273Z,3.25
2022-08-05T21:37:04.742Z,3.40
2022-08-05T21:40:07.085Z,3.08
2022-08-05T21:43:24.115Z,3.20
2022-08-05T21:46:26.706Z,3.10
2022-08-05T21:49:58.604Z,3.00
2022-08-05T21:52:51.777Z,2.90
2022-08-05T21:56:06.398Z,2.97
2022-08-05T21:59:24.014Z,2.85
2022-08-05T22:02:27.050Z,2.78
2022-08-05T22:05:28.693Z,2.95
2022-08-05T22:08:52.209Z,2.72
2022-08-05T22:11:54.661Z,2.60
2022-08-05T22:14:58.513Z,2.60
2022-08-05T22:18:01.604Z,2.58
2022-08-05T22:21:18.646Z,2.60
2022-08-05T22:24:52.061Z,2.60
2022-08-05T22:28:08.177Z,2.78
2022-08-05T22:31:14.515Z,2.72
2022-08-05T22:34:28.402Z,2.30
2022-08-05T22:37:58.036Z,2.50
2022-08-05T22:40:54.944Z,2.40
2022-08-05T22:43:59.169Z,2.22
2022-08-05T22:47:00.764Z,2.22
2022-08-05T22:50:19.663Z,2.30
2022-08-05T22:53:23.190Z,2.30
2022-08-05T22:56:30.609Z,2.50
2022-08-05T22:59:45.332Z,2.25
2022-08-05T23:02:53.184Z,2.30
2022-08-05T23:05:55.761Z,2.30
2022-08-05T23:08:57.203Z,2.15
2022-08-05T23:12:20.227Z,2.25
2022-08-05T23:15:29.475Z,2.33
2022-08-05T23:18:36.616Z,2.10
2022-08-05T23:21:43.069Z,2.65
2022-08-05T23:24:51.057Z,2.25
2022-08-05T23:27:58.036Z,2.50
2022-08-05T23:31:16.354Z,2.10
2022-08-05T23:34:24.728Z,1.85
2022-08-05T23:37:26.720Z,2.10
2022-08-05T23:40:36.009Z,2.20
2022-08-05T23:44:04.491Z,2.30
2022-08-05T23:47:02.656Z,2.13
2022-08-05T23:50:17.032Z,2.15
2022-08-05T23:53:22.258Z,2.20
2022-08-05T23:56:27.391Z,2.30
